createdAt,value
2023-03-14T00:01:25.925Z,13.77
2023-03-14T00:03:30.424Z,13.76
2023-03-14T00:05:36.254Z,13.76
2023-03-14T00:07:41.080Z,13.74
2023-03-14T00:09:43.929Z,13.74
2023-03-14T00:11:47.491Z,13.72
2023-03-14T00:13:50.878Z,13.66
2023-03-14T00:15:53.819Z,13.62
2023-03-14T00:17:56.690Z,13.62
2023-03-14T00:20:05.164Z,13.65
2023-03-14T00:22:09.401Z,13.64
2023-03-14T00:24:12.243Z,13.62
2023-03-14T00:26:17.152Z,13.61
2023-03-14T00:28:19.902Z,13.56
2023-03-14T00:30:22.686Z,13.56
2023-03-14T00:32:25.762Z,13.58
2023-03-14T00:34:30.954Z,13.59
2023-03-14T00:36:33.915Z,13.62
2023-03-14T00:38:38.982Z,13.58
2023-03-14T00:40:41.929Z,13.50
2023-03-14T00:42:44.834Z,13.50
2023-03-14T00:44:47.544Z,13.47
2023-03-14T00:46:50.491Z,13.43
2023-03-14T00:48:53.338Z,13.44
2023-03-14T00:50:56.270Z,13.44
2023-03-14T00:52:59.662Z,13.47
2023-03-14T00:55:03.881Z,13.46
2023-03-14T00:57:06.571Z,13.47
2023-03-14T00:59:09.300Z,13.51
2023-03-14T01:01:16.048Z,13.52
2023-03-14T01:03:18.886Z,13.58
2023-03-14T01:05:23.364Z,13.62
2023-03-14T01:07:26.610Z,13.61
2023-03-14T01:09:29.553Z,13.64
2023-03-14T01:11:35.858Z,13.64
2023-03-14T01:13:39.167Z,13.69
2023-03-14T01:15:41.932Z,13.72
2023-03-14T01:17:45.441Z,13.70
2023-03-14T01:19:48.246Z,13.74
2023-03-14T01:21:51.104Z,13.74
2023-03-14T01:23:55.190Z,13.74
2023-03-14T01:25:58.191Z,13.73
2023-03-14T01:28:02.345Z,13.68
2023-03-14T01:30:06.130Z,13.66
2023-03-14T01:32:09.039Z,13.70
2023-03-14T01:34:11.895Z,13.73
2023-03-14T01:36:14.919Z,13.75
2023-03-14T01:38:17.760Z,13.76
2023-03-14T01:40:20.598Z,13.78
2023-03-14T01:42:23.435Z,13.78
2023-03-14T01:44:27.893Z,13.76
2023-03-14T01:46:36.055Z,13.73
2023-03-14T01:48:40.858Z,13.68
2023-03-14T01:50:43.746Z,13.68
2023-03-14T01:52:49.747Z,13.66
2023-03-14T01:54:55.135Z,13.70
2023-03-14T01:57:04.312Z,13.71
2023-03-14T01:59:09.994Z,13.74
2023-03-14T02:01:16.000Z,13.76
2023-03-14T02:03:22.480Z,13.77
2023-03-14T02:05:29.151Z,13.77
2023-03-14T02:07:37.524Z,13.75
2023-03-14T02:09:41.321Z,13.71
2023-03-14T02:11:45.674Z,13.67
2023-03-14T02:13:48.807Z,13.65
2023-03-14T02:15:52.286Z,13.61
2023-03-14T02:17:56.773Z,13.58
2023-03-14T02:20:09.640Z,13.57
2023-03-14T02:22:14.975Z,13.61
2023-03-14T02:24:27.426Z,13.66
2023-03-14T02:26:35.966Z,13.71
2023-03-14T02:28:40.384Z,13.71
2023-03-14T02:30:43.687Z,13.75
2023-03-14T02:32:49.391Z,13.74
2023-03-14T02:34:56.327Z,13.75
2023-03-14T02:36:59.936Z,13.74
2023-03-14T02:39:09.939Z,13.74
2023-03-14T02:41:12.808Z,13.73
2023-03-14T02:43:15.720Z,13.72
2023-03-14T02:45:41.971Z,13.69
2023-03-14T02:47:49.289Z,13.73
2023-03-14T02:49:55.496Z,13.75
2023-03-14T02:51:58.398Z,13.77
2023-03-14T02:54:01.209Z,13.75
2023-03-14T02:56:04.689Z,13.75
2023-03-14T02:58:07.517Z,13.75
2023-03-14T03:00:11.667Z,13.76
2023-03-14T03:02:15.848Z,13.75
2023-03-14T03:04:18.759Z,13.72
2023-03-14T03:06:22.206Z,13.74
2023-03-14T03:08:27.209Z,13.76
2023-03-14T03:10:30.596Z,13.75
2023-03-14T03:12:33.392Z,13.78
2023-03-14T03:14:36.162Z,13.76
2023-03-14T03:16:39.079Z,13.75
2023-03-14T03:18:43.279Z,13.77
2023-03-14T03:20:46.594Z,13.77
2023-03-14T03:22:50.837Z,13.74
2023-03-14T03:24:53.739Z,13.76
2023-03-14T03:26:57.071Z,13.74
2023-03-14T03:28:59.803Z,13.75
2023-03-14T03:31:09.109Z,13.73
2023-03-14T03:33:12.348Z,13.74
2023-03-14T03:35:16.716Z,13.73
2023-03-14T03:37:19.770Z,13.72
2023-03-14T03:39:22.709Z,13.72
2023-03-14T03:41:25.626Z,13.69
2023-03-14T03:43:28.381Z,13.63
2023-03-14T03:45:31.244Z,13.63
2023-03-14T03:47:34.115Z,13.60
2023-03-14T03:49:37.043Z,13.59
2023-03-14T03:51:42.004Z,13.58
2023-03-14T03:53:45.164Z,13.60
2023-03-14T03:55:48.067Z,13.59
2023-03-14T03:57:50.984Z,13.57
2023-03-14T03:59:53.744Z,13.57
2023-03-14T04:01:56.870Z,13.57
2023-03-14T04:03:59.969Z,13.59
2023-03-14T04:06:05.048Z,13.59
2023-03-14T04:08:09.289Z,13.61
2023-03-14T04:10:12.536Z,13.63
2023-03-14T04:12:15.302Z,13.63
2023-03-14T04:14:18.443Z,13.62
2023-03-14T04:16:23.742Z,13.62
2023-03-14T04:18:26.869Z,13.66
2023-03-14T04:20:29.654Z,13.65
2023-03-14T04:22:32.536Z,13.63
2023-03-14T04:24:36.681Z,13.63
2023-03-14T04:26:39.460Z,13.62
2023-03-14T04:28:42.409Z,13.63
2023-03-14T04:30:45.514Z,13.62
2023-03-14T04:32:48.310Z,13.62
2023-03-14T04:34:51.147Z,13.62
2023-03-14T04:36:53.912Z,13.61
2023-03-14T04:38:56.832Z,13.60
2023-03-14T04:41:01.586Z,13.59
2023-03-14T04:43:04.364Z,13.58
2023-03-14T04:45:08.805Z,13.54
2023-03-14T04:47:11.694Z,13.44
2023-03-14T04:49:14.667Z,13.39
2023-03-14T04:51:17.464Z,13.33
2023-03-14T04:53:20.597Z,13.30
2023-03-14T04:55:24.488Z,13.28
2023-03-14T04:57:28.800Z,13.20
2023-03-14T04:59:31.757Z,13.16
2023-03-14T05:01:34.616Z,13.19
2023-03-14T05:03:39.029Z,13.20
2023-03-14T05:05:41.860Z,13.18
2023-03-14T05:07:44.608Z,13.12
2023-03-14T05:09:47.443Z,13.11
2023-03-14T05:11:50.294Z,13.12
2023-03-14T05:13:54.612Z,13.11
2023-03-14T05:16:05.829Z,13.09
2023-03-14T05:18:08.619Z,13.09
2023-03-14T05:20:13.707Z,13.02
2023-03-14T05:22:16.580Z,12.98
2023-03-14T05:24:19.426Z,12.96
2023-03-14T05:26:22.304Z,12.97
2023-03-14T05:28:25.190Z,12.96
2023-03-14T05:30:31.733Z,12.97
2023-03-14T05:32:34.890Z,13.00
2023-03-14T05:34:37.866Z,13.04
2023-03-14T05:36:40.726Z,13.07
2023-03-14T05:38:43.578Z,13.04
2023-03-14T05:40:47.439Z,13.00
2023-03-14T05:42:50.289Z,12.96
2023-03-14T05:44:53.031Z,12.95
2023-03-14T05:46:57.150Z,12.93
2023-03-14T05:49:00.176Z,12.93
2023-03-14T05:51:03.096Z,12.89
2023-03-14T05:53:06.171Z,12.87
2023-03-14T05:55:09.796Z,12.86
2023-03-14T05:57:12.585Z,12.96
2023-03-14T05:59:15.971Z,12.99
2023-03-14T06:01:18.771Z,12.99
2023-03-14T06:03:23.137Z,12.97
2023-03-14T06:05:26.050Z,12.94
2023-03-14T06:07:28.862Z,12.94
2023-03-14T06:09:31.637Z,12.95
2023-03-14T06:11:34.907Z,12.97
2023-03-14T06:13:37.722Z,12.98
2023-03-14T06:15:40.592Z,12.97
2023-03-14T06:17:43.388Z,13.02
2023-03-14T06:19:47.742Z,13.00
2023-03-14T06:21:50.484Z,13.00
2023-03-14T06:23:53.269Z,12.99
2023-03-14T06:25:56.241Z,12.98
2023-03-14T06:27:58.994Z,12.95
2023-03-14T06:30:01.896Z,12.96
2023-03-14T06:32:07.333Z,12.95
2023-03-14T06:34:10.209Z,12.89
2023-03-14T06:36:14.520Z,12.85
2023-03-14T06:38:17.393Z,12.81
2023-03-14T06:40:20.314Z,12.79
2023-03-14T06:42:23.813Z,12.78
2023-03-14T06:44:26.730Z,12.75
2023-03-14T06:46:29.733Z,12.75
2023-03-14T06:48:32.581Z,12.80
2023-03-14T06:50:36.218Z,12.85
2023-03-14T06:52:42.190Z,12.84
2023-03-14T06:54:45.085Z,12.85
2023-03-14T06:56:48.073Z,12.85
2023-03-14T06:58:50.901Z,12.82
2023-03-14T07:00:55.343Z,12.85
2023-03-14T07:02:58.116Z,12.86
2023-03-14T07:05:01.541Z,12.85
2023-03-14T07:07:04.356Z,12.87
2023-03-14T07:09:08.532Z,12.86
2023-03-14T07:11:12.228Z,12.86
2023-03-14T07:13:15.066Z,12.87
2023-03-14T07:15:19.520Z,12.85
2023-03-14T07:17:22.576Z,12.91
2023-03-14T07:19:25.430Z,12.90
2023-03-14T07:21:28.654Z,12.94
2023-03-14T07:23:31.954Z,12.96
2023-03-14T07:25:36.205Z,12.89
2023-03-14T07:27:39.041Z,12.89
2023-03-14T07:29:41.912Z,12.86
2023-03-14T07:31:44.791Z,12.90
2023-03-14T07:33:48.597Z,12.87
2023-03-14T07:35:51.969Z,12.81
2023-03-14T07:37:54.829Z,12.80
2023-03-14T07:39:58.170Z,12.76
2023-03-14T07:42:02.953Z,12.77
2023-03-14T07:44:05.877Z,12.77
2023-03-14T07:46:08.996Z,12.80
2023-03-14T07:48:11.952Z,12.81
2023-03-14T07:50:14.937Z,12.82
2023-03-14T07:52:18.670Z,12.79
2023-03-14T07:54:21.615Z,12.77
2023-03-14T07:56:24.410Z,12.79
2023-03-14T07:58:28.621Z,12.82
2023-03-14T08:00:31.400Z,12.89
2023-03-14T08:02:34.191Z,12.88
2023-03-14T08:04:37.613Z,12.81
2023-03-14T08:06:40.923Z,12.74
2023-03-14T08:08:43.849Z,12.76
2023-03-14T08:10:47.345Z,12.75
2023-03-14T08:12:50.524Z,12.81
2023-03-14T08:14:54.701Z,12.78
2023-03-14T08:16:57.512Z,12.74
2023-03-14T08:19:00.389Z,12.78
2023-03-14T08:21:03.352Z,12.79
2023-03-14T08:23:06.200Z,12.79
2023-03-14T08:25:09.794Z,12.79
2023-03-14T08:27:12.586Z,12.78
2023-03-14T08:29:15.496Z,12.72
2023-03-14T08:31:19.809Z,12.71
2023-03-14T08:33:22.851Z,12.74
2023-03-14T08:35:26.141Z,12.71
2023-03-14T08:37:29.067Z,12.67
2023-03-14T08:39:31.963Z,12.67
2023-03-14T08:41:36.037Z,12.70
2023-03-14T08:43:41.302Z,12.68
2023-03-14T08:45:44.107Z,12.64
2023-03-14T08:47:48.480Z,12.66
2023-03-14T08:49:51.481Z,12.64
2023-03-14T08:51:54.327Z,12.61
2023-03-14T08:53:57.501Z,12.59
2023-03-14T08:56:00.528Z,12.55
2023-03-14T08:58:03.356Z,12.52
2023-03-14T09:00:11.300Z,12.50
2023-03-14T09:02:14.584Z,12.53
2023-03-14T09:04:18.977Z,12.50
2023-03-14T09:06:21.878Z,12.49
2023-03-14T09:08:24.740Z,12.50
2023-03-14T09:10:29.922Z,12.46
2023-03-14T09:12:32.820Z,12.47
2023-03-14T09:14:35.951Z,12.45
2023-03-14T09:16:38.997Z,12.43
2023-03-14T09:18:44.386Z,12.43
2023-03-14T09:20:48.842Z,12.45
2023-03-14T09:22:51.678Z,12.46
2023-03-14T09:24:54.606Z,12.49
2023-03-14T09:26:57.845Z,12.52
2023-03-14T09:29:00.692Z,12.60
2023-03-14T09:31:08.953Z,12.66
2023-03-14T09:33:11.822Z,12.67
2023-03-14T09:35:14.702Z,12.68
2023-03-14T09:37:19.107Z,12.64
2023-03-14T09:39:22.201Z,12.62
2023-03-14T09:41:28.629Z,12.63
2023-03-14T09:43:36.732Z,12.62
2023-03-14T09:45:43.730Z,12.62
2023-03-14T09:47:58.546Z,12.63
2023-03-14T09:50:04.239Z,12.62
2023-03-14T09:52:13.744Z,12.59
2023-03-14T09:54:31.094Z,12.58
2023-03-14T09:56:36.076Z,12.55
2023-03-14T09:58:42.425Z,12.53
2023-03-14T10:00:46.207Z,12.47
2023-03-14T10:02:53.845Z,12.42
2023-03-14T10:04:56.840Z,12.38
2023-03-14T10:06:59.544Z,12.39
2023-03-14T10:09:03.540Z,12.42
2023-03-14T10:11:08.446Z,12.47
2023-03-14T10:13:17.479Z,12.50
2023-03-14T10:15:27.011Z,12.42
2023-03-14T10:17:31.290Z,12.30
2023-03-14T10:19:34.124Z,12.17
2023-03-14T10:21:41.554Z,12.09
2023-03-14T10:23:44.819Z,12.06
2023-03-14T10:26:01.399Z,12.07
2023-03-14T10:28:07.881Z,12.17
2023-03-14T10:30:45.211Z,12.17
2023-03-14T10:32:48.587Z,12.15
2023-03-14T10:35:08.155Z,12.11
2023-03-14T10:37:23.201Z,12.10
2023-03-14T10:39:31.064Z,12.14
2023-03-14T10:41:35.585Z,12.16
2023-03-14T10:43:40.202Z,12.18
2023-03-14T10:45:45.048Z,12.25
2023-03-14T10:47:51.060Z,12.26
2023-03-14T10:49:54.055Z,12.27
2023-03-14T10:51:56.973Z,12.36
2023-03-14T10:54:01.484Z,12.43
2023-03-14T10:56:05.637Z,12.42
2023-03-14T10:58:20.642Z,12.43
2023-03-14T11:00:25.616Z,12.43
2023-03-14T11:02:40.000Z,12.50
2023-03-14T11:05:03.199Z,12.52
2023-03-14T11:07:13.370Z,12.45
2023-03-14T11:09:24.232Z,12.39
2023-03-14T11:11:31.566Z,12.40
2023-03-14T11:13:41.298Z,12.40
2023-03-14T11:15:55.998Z,12.42
2023-03-14T11:18:33.653Z,12.44
2023-03-14T11:20:45.189Z,12.46
2023-03-14T11:22:51.971Z,12.48
2023-03-14T11:25:17.146Z,12.56
2023-03-14T11:27:23.440Z,12.62
2023-03-14T11:29:35.581Z,12.62
2023-03-14T11:31:42.667Z,12.63
2023-03-14T11:33:56.616Z,12.59
2023-03-14T11:36:07.604Z,12.43
2023-03-14T11:38:29.747Z,12.08
2023-03-14T11:40:35.043Z,11.81
2023-03-14T11:42:39.308Z,11.54
2023-03-14T11:44:46.518Z,11.54
2023-03-14T11:46:55.351Z,11.47
2023-03-14T11:49:03.859Z,11.41
2023-03-14T11:51:13.257Z,11.42
2023-03-14T11:53:20.346Z,11.45
2023-03-14T11:55:28.076Z,11.43
2023-03-14T11:57:30.880Z,11.51
2023-03-14T11:59:44.434Z,11.58
2023-03-14T12:01:58.044Z,11.69
2023-03-14T12:04:08.997Z,11.78
2023-03-14T12:06:18.717Z,11.87
2023-03-14T12:08:40.597Z,11.94
2023-03-14T12:10:48.237Z,12.01
2023-03-14T12:12:51.379Z,12.10
2023-03-14T12:14:57.539Z,12.20
2023-03-14T12:17:08.505Z,12.28
2023-03-14T12:19:34.317Z,12.38
2023-03-14T12:21:49.591Z,12.48
2023-03-14T12:23:54.716Z,12.53
2023-03-14T12:26:19.149Z,12.53
2023-03-14T12:28:23.203Z,12.53
2023-03-14T12:30:30.405Z,12.60
2023-03-14T12:32:34.786Z,12.63
2023-03-14T12:34:43.400Z,12.67
2023-03-14T12:37:08.840Z,12.65
2023-03-14T12:39:24.424Z,12.67
2023-03-14T12:41:31.538Z,12.72
2023-03-14T12:43:38.084Z,12.75
2023-03-14T12:45:42.689Z,12.82
2023-03-14T12:47:57.258Z,12.91
2023-03-14T12:50:17.305Z,12.98
2023-03-14T12:52:23.398Z,13.01
2023-03-14T12:54:40.411Z,13.06
2023-03-14T12:56:54.964Z,13.10
2023-03-14T12:59:16.181Z,13.14
2023-03-14T13:01:20.893Z,13.20
2023-03-14T13:03:29.020Z,13.20
2023-03-14T13:05:32.179Z,13.28
2023-03-14T13:07:39.173Z,13.32
2023-03-14T13:09:57.624Z,13.40
2023-03-14T13:12:04.681Z,13.47
2023-03-14T13:14:12.236Z,13.47
2023-03-14T13:16:18.995Z,13.48
2023-03-14T13:18:31.898Z,13.53
2023-03-14T13:20:37.798Z,13.54
2023-03-14T13:22:40.962Z,13.52
2023-03-14T13:24:43.842Z,13.49
2023-03-14T13:26:47.953Z,13.42
2023-03-14T13:28:51.227Z,13.41
2023-03-14T13:30:59.579Z,13.38
2023-03-14T13:33:06.161Z,13.38
2023-03-14T13:35:21.857Z,13.33
2023-03-14T13:37:26.853Z,13.32
2023-03-14T13:39:31.682Z,13.32
2023-03-14T13:41:34.711Z,13.24
2023-03-14T13:43:42.050Z,13.20
2023-03-14T13:45:53.880Z,13.17
2023-03-14T13:47:56.950Z,13.16
2023-03-14T13:50:00.879Z,13.14
2023-03-14T13:52:06.147Z,13.20
2023-03-14T13:54:21.209Z,13.22
2023-03-14T13:56:26.402Z,13.18
2023-03-14T13:58:31.787Z,13.11
2023-03-14T14:00:34.885Z,13.09
2023-03-14T14:02:40.106Z,13.11
2023-03-14T14:04:46.934Z,13.17
2023-03-14T14:06:52.870Z,13.17
2023-03-14T14:08:58.250Z,13.20
2023-03-14T14:11:05.295Z,13.23
2023-03-14T14:13:14.925Z,13.27
2023-03-14T14:15:21.666Z,13.32
2023-03-14T14:17:28.757Z,13.27
2023-03-14T14:19:35.952Z,13.27
2023-03-14T14:21:39.004Z,13.22
2023-03-14T14:23:42.145Z,13.19
2023-03-14T14:25:47.534Z,13.17
2023-03-14T14:27:52.028Z,13.17
2023-03-14T14:30:03.108Z,13.13
2023-03-14T14:32:14.468Z,13.03
2023-03-14T14:34:21.838Z,12.89
2023-03-14T14:36:27.580Z,12.83
2023-03-14T14:38:31.431Z,12.83
2023-03-14T14:40:34.428Z,12.83
2023-03-14T14:42:43.399Z,12.87
2023-03-14T14:44:47.249Z,12.90
2023-03-14T14:46:50.664Z,12.93
2023-03-14T14:48:58.488Z,12.93
2023-03-14T14:51:03.524Z,12.90
2023-03-14T14:53:24.543Z,12.86
2023-03-14T14:55:34.023Z,12.87
2023-03-14T14:57:41.371Z,12.85
2023-03-14T14:59:47.446Z,12.84
2023-03-14T15:01:52.185Z,12.81
2023-03-14T15:03:55.893Z,12.74
2023-03-14T15:05:59.318Z,12.68
2023-03-14T15:08:01.888Z,12.67
2023-03-14T15:10:05.186Z,12.68
2023-03-14T15:12:08.255Z,12.66
2023-03-14T15:14:12.758Z,12.63
2023-03-14T15:16:19.947Z,12.61
2023-03-14T15:18:23.455Z,12.60
2023-03-14T15:20:26.332Z,12.52
2023-03-14T15:22:29.387Z,12.52
2023-03-14T15:24:32.120Z,12.50
2023-03-14T15:26:35.063Z,12.53
2023-03-14T15:28:37.945Z,12.55
2023-03-14T15:30:42.442Z,12.60
2023-03-14T15:32:45.759Z,12.62
2023-03-14T15:34:48.634Z,12.62
2023-03-14T15:36:51.433Z,12.67
2023-03-14T15:38:55.425Z,12.74
2023-03-14T15:40:58.448Z,12.74
2023-03-14T15:43:01.471Z,12.70
2023-03-14T15:45:04.571Z,12.68
2023-03-14T15:47:12.733Z,12.71
2023-03-14T15:49:15.639Z,12.68
2023-03-14T15:51:19.193Z,12.68
2023-03-14T15:53:22.347Z,12.67
2023-03-14T15:55:25.323Z,12.62
2023-03-14T15:57:28.289Z,12.55
2023-03-14T15:59:31.319Z,12.54
2023-03-14T16:01:34.415Z,12.56
2023-03-14T16:03:39.520Z,12.57
2023-03-14T16:05:42.603Z,12.56
2023-03-14T16:07:45.599Z,12.49
2023-03-14T16:09:48.381Z,12.50
2023-03-14T16:11:51.135Z,12.52
2023-03-14T16:13:54.124Z,12.56
2023-03-14T16:15:58.962Z,12.58
2023-03-14T16:18:06.480Z,12.56
2023-03-14T16:20:20.385Z,12.52
2023-03-14T16:22:23.307Z,12.52
2023-03-14T16:24:26.081Z,12.58
2023-03-14T16:26:28.905Z,12.60
2023-03-14T16:28:31.720Z,12.63
2023-03-14T16:30:34.475Z,12.67
2023-03-14T16:32:38.198Z,12.66
2023-03-14T16:34:43.338Z,12.59
2023-03-14T16:36:48.025Z,12.54
2023-03-14T16:38:51.516Z,12.52
2023-03-14T16:40:58.797Z,12.48
2023-03-14T16:43:15.663Z,12.40
2023-03-14T16:45:19.155Z,12.37
2023-03-14T16:47:22.600Z,12.36
2023-03-14T16:49:25.501Z,12.32
2023-03-14T16:51:28.445Z,12.31
2023-03-14T16:53:32.651Z,12.27
2023-03-14T16:55:35.691Z,12.27
2023-03-14T16:57:38.578Z,12.33
2023-03-14T16:59:41.314Z,12.39
2023-03-14T17:01:44.526Z,12.41
2023-03-14T17:03:48.850Z,12.46
2023-03-14T17:05:53.644Z,12.48
2023-03-14T17:07:56.662Z,12.46
2023-03-14T17:10:01.041Z,12.44
2023-03-14T17:12:03.897Z,12.44
2023-03-14T17:14:06.733Z,12.41
2023-03-14T17:16:10.470Z,12.43
2023-03-14T17:18:13.555Z,12.48
2023-03-14T17:20:17.398Z,12.47
2023-03-14T17:22:25.921Z,12.50
2023-03-14T17:24:30.976Z,12.47
2023-03-14T17:26:35.217Z,12.48
2023-03-14T17:28:37.938Z,12.51
2023-03-14T17:30:40.803Z,12.53
2023-03-14T17:32:43.655Z,12.52
2023-03-14T17:34:46.954Z,12.53
2023-03-14T17:36:49.988Z,12.50
2023-03-14T17:38:53.973Z,12.50
2023-03-14T17:40:56.744Z,12.52
2023-03-14T17:43:00.851Z,12.52
2023-03-14T17:45:03.812Z,12.52
2023-03-14T17:47:06.859Z,12.52
2023-03-14T17:49:09.701Z,12.50
2023-03-14T17:51:13.020Z,12.46
2023-03-14T17:53:15.776Z,12.47
2023-03-14T17:55:19.067Z,12.47
2023-03-14T17:57:23.452Z,12.44
2023-03-14T17:59:27.695Z,12.41
2023-03-14T18:01:31.511Z,12.37
2023-03-14T18:03:34.498Z,12.29
2023-03-14T18:05:40.697Z,12.23
2023-03-14T18:07:43.726Z,12.20
2023-03-14T18:09:46.469Z,12.14
2023-03-14T18:11:51.615Z,12.09
2023-03-14T18:14:04.778Z,12.08
2023-03-14T18:16:14.520Z,12.09
2023-03-14T18:18:17.814Z,12.09
2023-03-14T18:20:20.990Z,12.12
2023-03-14T18:22:24.043Z,12.12
2023-03-14T18:24:28.843Z,12.11
2023-03-14T18:26:31.893Z,12.12
2023-03-14T18:28:34.744Z,12.15
2023-03-14T18:30:37.533Z,12.16
2023-03-14T18:32:41.811Z,12.13
2023-03-14T18:34:44.688Z,12.11
2023-03-14T18:36:47.958Z,12.05
2023-03-14T18:38:56.457Z,12.04
2023-03-14T18:41:05.240Z,12.04
2023-03-14T18:43:08.040Z,12.03
2023-03-14T18:45:12.072Z,11.99
2023-03-14T18:47:14.990Z,11.94
2023-03-14T18:49:20.787Z,11.95
2023-03-14T18:51:26.633Z,11.96
2023-03-14T18:53:32.313Z,11.97
2023-03-14T18:55:35.360Z,11.97
2023-03-14T18:57:38.179Z,11.92
2023-03-14T18:59:41.380Z,11.93
2023-03-14T19:01:44.493Z,11.88
2023-03-14T19:03:48.367Z,11.86
2023-03-14T19:05:52.557Z,11.83
2023-03-14T19:07:58.052Z,11.84
2023-03-14T19:10:00.993Z,11.83
2023-03-14T19:12:05.454Z,11.82
2023-03-14T19:14:09.194Z,11.79
2023-03-14T19:16:13.821Z,11.79
2023-03-14T19:18:16.660Z,11.81
2023-03-14T19:20:19.952Z,11.84
2023-03-14T19:22:24.350Z,11.85
2023-03-14T19:24:27.550Z,11.86
2023-03-14T19:26:32.404Z,11.87
2023-03-14T19:28:35.557Z,11.88
2023-03-14T19:30:38.445Z,11.88
2023-03-14T19:32:41.927Z,11.86
2023-03-14T19:34:44.721Z,11.86
2023-03-14T19:36:47.502Z,11.87
2023-03-14T19:38:53.067Z,11.88
2023-03-14T19:40:59.087Z,11.87
2023-03-14T19:43:01.867Z,11.88
2023-03-14T19:45:05.701Z,11.87
2023-03-14T19:47:08.488Z,11.85
2023-03-14T19:49:11.444Z,11.84
2023-03-14T19:51:14.738Z,11.85
2023-03-14T19:53:19.153Z,11.83
2023-03-14T19:55:23.696Z,11.84
2023-03-14T19:57:26.498Z,11.82
2023-03-14T19:59:29.252Z,11.83
2023-03-14T20:01:32.736Z,11.81
2023-03-14T20:03:36.298Z,11.85
2023-03-14T20:05:41.754Z,11.90
2023-03-14T20:07:46.552Z,11.94
2023-03-14T20:09:49.275Z,11.93
2023-03-14T20:11:53.463Z,11.97
2023-03-14T20:13:56.273Z,11.99
2023-03-14T20:15:59.130Z,11.97
2023-03-14T20:18:02.016Z,12.00
2023-03-14T20:20:06.543Z,12.02
2023-03-14T20:22:09.302Z,12.02
2023-03-14T20:24:12.095Z,12.00
2023-03-14T20:26:14.871Z,12.01
2023-03-14T20:28:18.963Z,12.04
2023-03-14T20:30:22.971Z,12.01
2023-03-14T20:32:25.923Z,12.01
2023-03-14T20:34:32.356Z,12.03
2023-03-14T20:36:35.754Z,12.02
2023-03-14T20:38:38.662Z,12.04
2023-03-14T20:40:41.472Z,12.04
2023-03-14T20:42:44.021Z,12.06
2023-03-14T20:44:48.221Z,12.08
2023-03-14T20:46:51.095Z,12.07
2023-03-14T20:48:53.949Z,12.09
2023-03-14T20:50:57.234Z,12.09
2023-03-14T20:53:00.050Z,12.09
2023-03-14T20:55:02.932Z,12.10
2023-03-14T20:57:06.006Z,12.10
2023-03-14T20:59:09.054Z,12.07
2023-03-14T21:01:13.799Z,12.07
2023-03-14T21:03:17.984Z,12.10
2023-03-14T21:05:21.304Z,12.11
2023-03-14T21:07:24.160Z,12.09
2023-03-14T21:09:27.432Z,12.08
2023-03-14T21:11:30.291Z,12.03
2023-03-14T21:13:33.755Z,12.03
2023-03-14T21:15:37.649Z,12.02
2023-03-14T21:17:42.501Z,12.01
2023-03-14T21:19:45.629Z,12.04
2023-03-14T21:21:48.787Z,12.04
2023-03-14T21:23:54.234Z,12.05
2023-03-14T21:25:57.929Z,12.07
2023-03-14T21:28:02.760Z,12.08
2023-03-14T21:30:06.703Z,12.09
2023-03-14T21:32:10.715Z,12.09
2023-03-14T21:34:15.317Z,12.07
2023-03-14T21:36:21.341Z,12.09
2023-03-14T21:38:24.247Z,12.11
2023-03-14T21:40:27.238Z,12.12
2023-03-14T21:42:30.105Z,12.08
2023-03-14T21:44:37.142Z,12.10
2023-03-14T21:46:40.266Z,12.09
2023-03-14T21:48:45.010Z,12.05
2023-03-14T21:50:49.647Z,12.05
2023-03-14T21:52:56.494Z,12.06
2023-03-14T21:54:59.537Z,12.05
2023-03-14T21:57:03.423Z,12.02
2023-03-14T21:59:06.471Z,12.02
2023-03-14T22:01:10.099Z,12.01
2023-03-14T22:03:14.096Z,12.03
2023-03-14T22:05:18.430Z,12.00
2023-03-14T22:07:22.596Z,11.99
2023-03-14T22:09:25.518Z,11.98
2023-03-14T22:11:28.269Z,12.00
2023-03-14T22:13:31.361Z,11.98
2023-03-14T22:15:34.225Z,11.99
2023-03-14T22:17:37.358Z,11.99
2023-03-14T22:19:40.495Z,11.97
2023-03-14T22:21:44.061Z,12.00
2023-03-14T22:23:49.953Z,12.01
2023-03-14T22:25:52.935Z,11.96
2023-03-14T22:27:57.123Z,11.98
2023-03-14T22:29:59.968Z,11.95
2023-03-14T22:32:02.791Z,11.95
2023-03-14T22:34:05.686Z,11.97
2023-03-14T22:36:10.320Z,12.00
2023-03-14T22:38:13.039Z,12.01
2023-03-14T22:40:17.390Z,11.99
2023-03-14T22:42:20.183Z,11.97
2023-03-14T22:44:23.799Z,11.88
